sensor_id;sensor_type;location;lat;lon;timestamp;temperature;humidity
1978;DHT22;989;53.016;8.346;2023-01-10T00:00:27;6.70;99.90
1978;DHT22;989;53.016;8.346;2023-01-10T00:03:02;6.80;99.90
1978;DHT22;989;53.016;8.346;2023-01-10T00:05:29;6.90;99.90
1978;DHT22;989;53.016;8.346;2023-01-10T00:07:55;6.90;99.90
1978;DHT22;989;53.016;8.346;2023-01-10T00:10:21;6.90;99.90
1978;DHT22;989;53.016;8.346;2023-01-10T00:12:47;6.90;99.90
1978;DHT22;989;53.016;8.346;2023-01-10T00:15:32;6.90;99.90
1978;DHT22;989;53.016;8.346;2023-01-10T00:17:58;6.90;99.90
1978;DHT22;989;53.016;8.346;2023-01-10T00:20:24;7.00;99.90
1978;DHT22;989;53.016;8.346;2023-01-10T00:22:50;7.00;99.90
1978;DHT22;989;53.016;8.346;2023-01-10T00:25:16;6.90;99.90
1978;DHT22;989;53.016;8.346;2023-01-10T00:27:49;6.80;99.90
1978;DHT22;989;53.016;8.346;2023-01-10T00:30:27;6.80;99.90
1978;DHT22;989;53.016;8.346;2023-01-10T00:32:52;6.90;99.90
1978;DHT22;989;53.016;8.346;2023-01-10T00:35:18;6.90;99.90
1978;DHT22;989;53.016;8.346;2023-01-10T00:37:44;6.90;99.90
1978;DHT22;989;53.016;8.346;2023-01-10T00:40:11;6.90;99.90
1978;DHT22;989;53.016;8.346;2023-01-10T00:42:37;6.90;99.90
1978;DHT22;989;53.016;8.346;2023-01-10T00:45:22;6.90;99.90
1978;DHT22;989;53.016;8.346;2023-01-10T00:47:49;6.80;99.90
1978;DHT22;989;53.016;8.346;2023-01-10T00:50:16;6.70;99.90
1978;DHT22;989;53.016;8.346;2023-01-10T00:52:42;6.60;99.90
1978;DHT22;989;53.016;8.346;2023-01-10T00:55:08;6.60;99.90
1978;DHT22;989;53.016;8.346;2023-01-10T00:57:34;6.60;99.90
1978;DHT22;989;53.016;8.346;2023-01-10T01:00:00;6.60;99.90
1978;DHT22;989;53.016;8.346;2023-01-10T01:02:25;6.60;99.90
1978;DHT22;989;53.016;8.346;2023-01-10T01:04:51;6.70;99.90
1978;DHT22;989;53.016;8.346;2023-01-10T01:07:17;6.70;99.90
1978;DHT22;989;53.016;8.346;2023-01-10T01:09:42;6.70;99.90
1978;DHT22;989;53.016;8.346;2023-01-10T01:12:26;6.80;99.90
1978;DHT22;989;53.016;8.346;2023-01-10T01:14:52;6.90;99.90
1978;DHT22;989;53.016;8.346;2023-01-10T01:17:18;6.90;99.90
1978;DHT22;989;53.016;8.346;2023-01-10T01:19:43;7.00;99.90
1978;DHT22;989;53.016;8.346;2023-01-10T01:22:09;7.00;99.90
1978;DHT22;989;53.016;8.346;2023-01-10T01:24:35;7.10;99.90
1978;DHT22;989;53.016;8.346;2023-01-10T01:27:01;7.10;99.90
1978;DHT22;989;53.016;8.346;2023-01-10T01:29:26;7.00;99.90
1978;DHT22;989;53.016;8.346;2023-01-10T01:31:52;7.00;99.90
1978;DHT22;989;53.016;8.346;2023-01-10T01:34:18;7.10;99.90
1978;DHT22;989;53.016;8.346;2023-01-10T01:36:43;7.10;99.90
1978;DHT22;989;53.016;8.346;2023-01-10T01:39:09;7.10;99.90
1978;DHT22;989;53.016;8.346;2023-01-10T01:41:36;7.20;99.90
1978;DHT22;989;53.016;8.346;2023-01-10T01:44:20;7.10;99.90
1978;DHT22;989;53.016;8.346;2023-01-10T01:47:36;7.10;99.90
1978;DHT22;989;53.016;8.346;2023-01-10T01:49:49;7.10;99.90
1978;DHT22;989;53.016;8.346;2023-01-10T01:52:24;7.00;99.90
1978;DHT22;989;53.016;8.346;2023-01-10T01:54:56;6.90;99.90
1978;DHT22;989;53.016;8.346;2023-01-10T01:57:25;6.80;99.90
1978;DHT22;989;53.016;8.346;2023-01-10T01:59:53;6.90;99.90
1978;DHT22;989;53.016;8.346;2023-01-10T02:02:29;6.90;99.90
1978;DHT22;989;53.016;8.346;2023-01-10T02:05:00;6.80;99.90
1978;DHT22;989;53.016;8.346;2023-01-10T02:07:33;6.70;99.90
1978;DHT22;989;53.016;8.346;2023-01-10T02:10:02;6.70;99.90
1978;DHT22;989;53.016;8.346;2023-01-10T02:12:31;6.60;99.90
1978;DHT22;989;53.016;8.346;2023-01-10T02:14:58;6.60;99.90
1978;DHT22;989;53.016;8.346;2023-01-10T02:17:24;6.60;99.90
1978;DHT22;989;53.016;8.346;2023-01-10T02:19:51;6.60;99.90
1978;DHT22;989;53.016;8.346;2023-01-10T02:35:41;6.80;99.90
1978;DHT22;989;53.016;8.346;2023-01-10T02:41:34;6.80;99.90
1978;DHT22;989;53.016;8.346;2023-01-10T02:44:31;6.80;99.90
1978;DHT22;989;53.016;8.346;2023-01-10T02:47:02;6.90;99.90
1978;DHT22;989;53.016;8.346;2023-01-10T02:49:29;6.80;99.90
1978;DHT22;989;53.016;8.346;2023-01-10T02:51:55;6.90;99.90
1978;DHT22;989;53.016;8.346;2023-01-10T02:54:30;6.90;99.90
1978;DHT22;989;53.016;8.346;2023-01-10T03:11:02;6.90;99.90
1978;DHT22;989;53.016;8.346;2023-01-10T03:13:56;6.90;99.90
1978;DHT22;989;53.016;8.346;2023-01-10T03:16:27;6.90;99.90
1978;DHT22;989;53.016;8.346;2023-01-10T03:19:03;6.70;99.90
1978;DHT22;989;53.016;8.346;2023-01-10T03:21:33;6.60;99.90
1978;DHT22;989;53.016;8.346;2023-01-10T03:24:06;6.60;99.90
1978;DHT22;989;53.016;8.346;2023-01-10T03:26:48;6.60;99.90
1978;DHT22;989;53.016;8.346;2023-01-10T03:29:28;6.80;99.90
1978;DHT22;989;53.016;8.346;2023-01-10T03:32:00;6.80;99.90
1978;DHT22;989;53.016;8.346;2023-01-10T03:34:28;6.90;99.90
1978;DHT22;989;53.016;8.346;2023-01-10T03:37:02;6.90;99.90
1978;DHT22;989;53.016;8.346;2023-01-10T03:45:59;7.00;99.90
1978;DHT22;989;53.016;8.346;2023-01-10T03:48:29;6.90;99.90
1978;DHT22;989;53.016;8.346;2023-01-10T03:50:59;6.70;99.90
1978;DHT22;989;53.016;8.346;2023-01-10T03:53:27;6.60;99.90
1978;DHT22;989;53.016;8.346;2023-01-10T03:55:53;6.60;99.90
1978;DHT22;989;53.016;8.346;2023-01-10T03:58:19;6.50;99.90
1978;DHT22;989;53.016;8.346;2023-01-10T04:00:47;6.40;99.90
1978;DHT22;989;53.016;8.346;2023-01-10T04:03:13;6.30;99.90
1978;DHT22;989;53.016;8.346;2023-01-10T04:05:40;6.20;99.90
1978;DHT22;989;53.016;8.346;2023-01-10T04:08:06;6.30;99.90
1978;DHT22;989;53.016;8.346;2023-01-10T04:10:32;6.30;99.90
1978;DHT22;989;53.016;8.346;2023-01-10T04:13:00;6.30;99.90
1978;DHT22;989;53.016;8.346;2023-01-10T04:15:29;6.30;99.90
1978;DHT22;989;53.016;8.346;2023-01-10T04:17:55;6.20;99.90
1978;DHT22;989;53.016;8.346;2023-01-10T04:20:21;6.10;99.90
1978;DHT22;989;53.016;8.346;2023-01-10T04:22:49;6.10;99.90
1978;DHT22;989;53.016;8.346;2023-01-10T04:25:15;6.10;99.90
1978;DHT22;989;53.016;8.346;2023-01-10T04:27:41;6.10;99.90
1978;DHT22;989;53.016;8.346;2023-01-10T04:30:08;6.00;99.90
1978;DHT22;989;53.016;8.346;2023-01-10T04:32:34;6.00;99.90
1978;DHT22;989;53.016;8.346;2023-01-10T04:35:00;5.90;99.90
1978;DHT22;989;53.016;8.346;2023-01-10T04:37:25;6.00;99.90
1978;DHT22;989;53.016;8.346;2023-01-10T04:39:51;6.00;99.90
1978;DHT22;989;53.016;8.346;2023-01-10T04:42:17;6.00;99.90
1978;DHT22;989;53.016;8.346;2023-01-10T04:44:42;6.10;99.90
1978;DHT22;989;53.016;8.346;2023-01-10T04:47:08;6.20;99.90
1978;DHT22;989;53.016;8.346;2023-01-10T04:49:34;6.30;99.90
1978;DHT22;989;53.016;8.346;2023-01-10T04:51:59;6.30;99.90
1978;DHT22;989;53.016;8.346;2023-01-10T04:54:25;6.40;99.90
1978;DHT22;989;53.016;8.346;2023-01-10T04:56:51;6.40;99.90
1978;DHT22;989;53.016;8.346;2023-01-10T04:59:17;6.40;99.90
1978;DHT22;989;53.016;8.346;2023-01-10T05:01:43;6.40;99.90
1978;DHT22;989;53.016;8.346;2023-01-10T05:04:09;6.40;99.90
1978;DHT22;989;53.016;8.346;2023-01-10T05:06:34;6.40;99.90
1978;DHT22;989;53.016;8.346;2023-01-10T05:09:01;6.40;99.90
1978;DHT22;989;53.016;8.346;2023-01-10T05:11:27;6.50;99.90
1978;DHT22;989;53.016;8.346;2023-01-10T05:13:53;6.40;99.90
1978;DHT22;989;53.016;8.346;2023-01-10T05:16:19;6.40;99.90
1978;DHT22;989;53.016;8.346;2023-01-10T05:18:44;6.50;99.90
1978;DHT22;989;53.016;8.346;2023-01-10T05:21:11;6.40;99.90
1978;DHT22;989;53.016;8.346;2023-01-10T05:23:38;6.40;99.90
1978;DHT22;989;53.016;8.346;2023-01-10T05:26:13;6.60;99.90
1978;DHT22;989;53.016;8.346;2023-01-10T05:28:41;6.70;99.90
1978;DHT22;989;53.016;8.346;2023-01-10T05:31:08;6.70;99.90
1978;DHT22;989;53.016;8.346;2023-01-10T05:33:35;6.80;99.90
1978;DHT22;989;53.016;8.346;2023-01-10T05:36:02;6.80;99.90
1978;DHT22;989;53.016;8.346;2023-01-10T05:38:29;6.80;99.90
1978;DHT22;989;53.016;8.346;2023-01-10T05:40:56;6.80;99.90
1978;DHT22;989;53.016;8.346;2023-01-10T05:43:24;6.90;99.90
1978;DHT22;989;53.016;8.346;2023-01-10T05:45:50;6.90;99.90
1978;DHT22;989;53.016;8.346;2023-01-10T05:48:17;6.90;99.90
1978;DHT22;989;53.016;8.346;2023-01-10T05:50:43;6.80;99.90
1978;DHT22;989;53.016;8.346;2023-01-10T05:53:09;6.90;99.90
1978;DHT22;989;53.016;8.346;2023-01-10T05:55:35;6.90;99.90
1978;DHT22;989;53.016;8.346;2023-01-10T05:58:00;6.90;99.90
1978;DHT22;989;53.016;8.346;2023-01-10T06:00:26;6.90;99.90
1978;DHT22;989;53.016;8.346;2023-01-10T06:02:56;6.90;99.90
1978;DHT22;989;53.016;8.346;2023-01-10T06:05:22;6.90;99.90
1978;DHT22;989;53.016;8.346;2023-01-10T06:07:49;6.90;99.90
1978;DHT22;989;53.016;8.346;2023-01-10T06:10:15;7.00;99.90
1978;DHT22;989;53.016;8.346;2023-01-10T06:12:42;7.00;99.90
1978;DHT22;989;53.016;8.346;2023-01-10T06:15:09;7.00;99.90
1978;DHT22;989;53.016;8.346;2023-01-10T06:17:35;7.00;99.90
1978;DHT22;989;53.016;8.346;2023-01-10T06:20:01;6.90;99.90
1978;DHT22;989;53.016;8.346;2023-01-10T06:22:27;6.90;99.90
1978;DHT22;989;53.016;8.346;2023-01-10T06:24:53;6.80;99.90
1978;DHT22;989;53.016;8.346;2023-01-10T06:27:20;6.90;99.90
1978;DHT22;989;53.016;8.346;2023-01-10T06:29:46;6.90;99.90
1978;DHT22;989;53.016;8.346;2023-01-10T06:32:12;6.90;99.90
1978;DHT22;989;53.016;8.346;2023-01-10T06:34:37;6.90;99.90
1978;DHT22;989;53.016;8.346;2023-01-10T06:37:03;6.90;99.90
1978;DHT22;989;53.016;8.346;2023-01-10T06:39:29;6.70;99.90
1978;DHT22;989;53.016;8.346;2023-01-10T06:41:54;6.70;99.90
1978;DHT22;989;53.016;8.346;2023-01-10T06:44:20;6.70;99.90
1978;DHT22;989;53.016;8.346;2023-01-10T06:46:46;6.70;99.90
1978;DHT22;989;53.016;8.346;2023-01-10T06:49:12;6.70;99.90
1978;DHT22;989;53.016;8.346;2023-01-10T06:51:38;6.70;99.90
1978;DHT22;989;53.016;8.346;2023-01-10T06:54:03;6.70;99.90
1978;DHT22;989;53.016;8.346;2023-01-10T06:56:29;6.90;99.90
1978;DHT22;989;53.016;8.346;2023-01-10T06:58:55;6.80;99.90
1978;DHT22;989;53.016;8.346;2023-01-10T07:01:21;6.70;99.90
1978;DHT22;989;53.016;8.346;2023-01-10T07:03:47;6.70;99.90
1978;DHT22;989;53.016;8.346;2023-01-10T07:06:14;6.70;99.90
1978;DHT22;989;53.016;8.346;2023-01-10T07:08:42;6.70;99.90
1978;DHT22;989;53.016;8.346;2023-01-10T07:11:10;6.70;99.90
1978;DHT22;989;53.016;8.346;2023-01-10T07:13:37;6.70;99.90
1978;DHT22;989;53.016;8.346;2023-01-10T07:16:06;6.70;99.90
1978;DHT22;989;53.016;8.346;2023-01-10T07:18:34;6.70;99.90
1978;DHT22;989;53.016;8.346;2023-01-10T07:21:01;6.70;99.90
1978;DHT22;989;53.016;8.346;2023-01-10T07:23:28;6.60;99.90
1978;DHT22;989;53.016;8.346;2023-01-10T07:26:05;6.60;99.90
1978;DHT22;989;53.016;8.346;2023-01-10T07:28:33;6.50;99.90
1978;DHT22;989;53.016;8.346;2023-01-10T07:31:03;6.50;99.90
1978;DHT22;989;53.016;8.346;2023-01-10T07:33:30;6.50;99.90
1978;DHT22;989;53.016;8.346;2023-01-10T07:35:57;6.60;99.90
1978;DHT22;989;53.016;8.346;2023-01-10T07:38:24;6.70;99.90
1978;DHT22;989;53.016;8.346;2023-01-10T07:40:51;6.80;99.90
1978;DHT22;989;53.016;8.346;2023-01-10T07:43:17;6.80;99.90
1978;DHT22;989;53.016;8.346;2023-01-10T07:45:43;6.90;99.90
1978;DHT22;989;53.016;8.346;2023-01-10T07:48:09;6.90;99.90
1978;DHT22;989;53.016;8.346;2023-01-10T07:50:35;6.90;99.90
1978;DHT22;989;53.016;8.346;2023-01-10T07:53:03;7.00;99.90
1978;DHT22;989;53.016;8.346;2023-01-10T07:55:30;7.00;99.90
1978;DHT22;989;53.016;8.346;2023-01-10T07:57:59;7.00;99.90
1978;DHT22;989;53.016;8.346;2023-01-10T08:00:25;6.80;99.90
1978;DHT22;989;53.016;8.346;2023-01-10T08:02:55;6.80;99.90
1978;DHT22;989;53.016;8.346;2023-01-10T08:05:22;6.70;99.90
1978;DHT22;989;53.016;8.346;2023-01-10T08:07:48;6.60;99.90
1978;DHT22;989;53.016;8.346;2023-01-10T08:10:14;6.60;99.90
1978;DHT22;989;53.016;8.346;2023-01-10T08:12:40;6.60;99.90
1978;DHT22;989;53.016;8.346;2023-01-10T08:15:06;6.50;99.90
1978;DHT22;989;53.016;8.346;2023-01-10T08:17:33;6.50;99.90
1978;DHT22;989;53.016;8.346;2023-01-10T08:19:59;6.60;99.90
1978;DHT22;989;53.016;8.346;2023-01-10T08:22:26;6.70;99.90
1978;DHT22;989;53.016;8.346;2023-01-10T08:24:51;6.60;99.90
1978;DHT22;989;53.016;8.346;2023-01-10T08:27:17;6.60;99.90
1978;DHT22;989;53.016;8.346;2023-01-10T08:29:43;6.60;99.90
1978;DHT22;989;53.016;8.346;2023-01-10T08:32:09;6.60;99.90
1978;DHT22;989;53.016;8.346;2023-01-10T08:34:35;6.80;99.90
1978;DHT22;989;53.016;8.346;2023-01-10T08:37:02;6.90;99.90
1978;DHT22;989;53.016;8.346;2023-01-10T08:39:28;7.00;99.90
1978;DHT22;989;53.016;8.346;2023-01-10T08:41:55;7.00;99.90
1978;DHT22;989;53.016;8.346;2023-01-10T08:44:22;7.00;99.90
1978;DHT22;989;53.016;8.346;2023-01-10T08:46:47;7.10;99.90
1978;DHT22;989;53.016;8.346;2023-01-10T08:49:14;7.10;99.90
1978;DHT22;989;53.016;8.346;2023-01-10T08:51:39;7.20;99.90
1978;DHT22;989;53.016;8.346;2023-01-10T08:54:05;7.20;99.90
1978;DHT22;989;53.016;8.346;2023-01-10T08:56:31;7.20;99.90
1978;DHT22;989;53.016;8.346;2023-01-10T08:58:57;7.30;99.90
1978;DHT22;989;53.016;8.346;2023-01-10T09:01:22;7.40;99.90
1978;DHT22;989;53.016;8.346;2023-01-10T09:03:48;7.30;99.90
1978;DHT22;989;53.016;8.346;2023-01-10T09:06:14;7.40;99.90
1978;DHT22;989;53.016;8.346;2023-01-10T09:08:39;7.40;99.90
1978;DHT22;989;53.016;8.346;2023-01-10T09:11:05;7.50;99.90
1978;DHT22;989;53.016;8.346;2023-01-10T09:13:32;7.50;99.90
1978;DHT22;989;53.016;8.346;2023-01-10T09:15:58;7.50;99.90
1978;DHT22;989;53.016;8.346;2023-01-10T09:18:24;7.60;99.90
1978;DHT22;989;53.016;8.346;2023-01-10T09:20:51;7.60;99.90
1978;DHT22;989;53.016;8.346;2023-01-10T09:23:20;7.70;99.90
1978;DHT22;989;53.016;8.346;2023-01-10T09:25:47;7.70;99.90
1978;DHT22;989;53.016;8.346;2023-01-10T09:28:15;7.80;99.90
1978;DHT22;989;53.016;8.346;2023-01-10T09:30:42;7.90;99.90
1978;DHT22;989;53.016;8.346;2023-01-10T09:33:08;7.90;99.90
1978;DHT22;989;53.016;8.346;2023-01-10T09:35:41;8.00;99.90
1978;DHT22;989;53.016;8.346;2023-01-10T09:38:11;8.00;99.90
1978;DHT22;989;53.016;8.346;2023-01-10T09:41:13;8.10;99.90
1978;DHT22;989;53.016;8.346;2023-01-10T09:46:56;8.10;99.90
1978;DHT22;989;53.016;8.346;2023-01-10T09:49:46;8.10;99.90
1978;DHT22;989;53.016;8.346;2023-01-10T09:52:23;8.10;99.90
1978;DHT22;989;53.016;8.346;2023-01-10T09:54:54;8.10;99.90
1978;DHT22;989;53.016;8.346;2023-01-10T09:57:21;8.20;99.90
1978;DHT22;989;53.016;8.346;2023-01-10T09:59:48;8.10;99.90
1978;DHT22;989;53.016;8.346;2023-01-10T10:05:29;8.10;99.90
1978;DHT22;989;53.016;8.346;2023-01-10T10:08:00;8.30;99.90
1978;DHT22;989;53.016;8.346;2023-01-10T10:10:50;8.30;99.90
1978;DHT22;989;53.016;8.346;2023-01-10T10:31:13;8.50;95.80
1978;DHT22;989;53.016;8.346;2023-01-10T10:36:24;8.60;95.20
1978;DHT22;989;53.016;8.346;2023-01-10T10:39:02;8.70;93.30
1978;DHT22;989;53.016;8.346;2023-01-10T10:41:38;8.70;91.00
1978;DHT22;989;53.016;8.346;2023-01-10T10:44:28;8.70;86.50
1978;DHT22;989;53.016;8.346;2023-01-10T10:46:58;8.90;88.70
1978;DHT22;989;53.016;8.346;2023-01-10T10:49:35;8.90;69.30
1978;DHT22;989;53.016;8.346;2023-01-10T10:52:15;8.90;79.20
1978;DHT22;989;53.016;8.346;2023-01-10T10:54:44;8.80;74.10
1978;DHT22;989;53.016;8.346;2023-01-10T10:57:11;8.80;72.50
1978;DHT22;989;53.016;8.346;2023-01-10T10:59:37;8.70;75.70
1978;DHT22;989;53.016;8.346;2023-01-10T11:02:23;8.60;75.70
1978;DHT22;989;53.016;8.346;2023-01-10T11:04:54;8.60;73.90
1978;DHT22;989;53.016;8.346;2023-01-10T11:07:23;8.60;69.70
1978;DHT22;989;53.016;8.346;2023-01-10T11:09:53;8.60;70.80
1978;DHT22;989;53.016;8.346;2023-01-10T11:12:44;8.70;70.00
1978;DHT22;989;53.016;8.346;2023-01-10T11:15:45;8.80;69.40
1978;DHT22;989;53.016;8.346;2023-01-10T11:18:17;8.80;64.10
1978;DHT22;989;53.016;8.346;2023-01-10T11:21:13;8.90;59.60
1978;DHT22;989;53.016;8.346;2023-01-10T11:26:34;9.10;59.00
1978;DHT22;989;53.016;8.346;2023-01-10T11:31:40;9.20;47.50
1978;DHT22;989;53.016;8.346;2023-01-10T11:37:21;9.10;47.90
1978;DHT22;989;53.016;8.346;2023-01-10T11:40:12;9.10;49.20
1978;DHT22;989;53.016;8.346;2023-01-10T11:42:45;9.00;47.90
1978;DHT22;989;53.016;8.346;2023-01-10T11:50:21;9.00;50.10
1978;DHT22;989;53.016;8.346;2023-01-10T11:52:58;9.20;49.50
1978;DHT22;989;53.016;8.346;2023-01-10T11:55:28;9.20;45.10
1978;DHT22;989;53.016;8.346;2023-01-10T11:58:08;9.20;44.80
1978;DHT22;989;53.016;8.346;2023-01-10T12:00:43;9.20;38.00
1978;DHT22;989;53.016;8.346;2023-01-10T12:03:20;9.20;36.20
1978;DHT22;989;53.016;8.346;2023-01-10T12:05:57;9.20;36.20
1978;DHT22;989;53.016;8.346;2023-01-10T12:08:30;9.20;32.20
1978;DHT22;989;53.016;8.346;2023-01-10T12:11:06;9.10;32.80
1978;DHT22;989;53.016;8.346;2023-01-10T12:13:48;9.10;35.50
1978;DHT22;989;53.016;8.346;2023-01-10T12:16:24;9.30;38.80
1978;DHT22;989;53.016;8.346;2023-01-10T12:19:03;9.30;36.10
1978;DHT22;989;53.016;8.346;2023-01-10T12:21:40;9.40;35.00
1978;DHT22;989;53.016;8.346;2023-01-10T12:24:23;9.30;29.90
1978;DHT22;989;53.016;8.346;2023-01-10T12:26:52;9.30;30.00
1978;DHT22;989;53.016;8.346;2023-01-10T12:29:28;9.10;29.00
1978;DHT22;989;53.016;8.346;2023-01-10T12:32:00;9.10;37.40
1978;DHT22;989;53.016;8.346;2023-01-10T12:34:40;9.10;40.10
1978;DHT22;989;53.016;8.346;2023-01-10T12:37:29;9.20;41.10
1978;DHT22;989;53.016;8.346;2023-01-10T12:40:18;9.20;32.90
1978;DHT22;989;53.016;8.346;2023-01-10T12:43:04;9.20;34.50
1978;DHT22;989;53.016;8.346;2023-01-10T12:45:58;9.20;34.80
1978;DHT22;989;53.016;8.346;2023-01-10T12:48:51;9.20;32.00
1978;DHT22;989;53.016;8.346;2023-01-10T12:51:23;9.10;36.10
1978;DHT22;989;53.016;8.346;2023-01-10T12:53:57;9.10;35.40
1978;DHT22;989;53.016;8.346;2023-01-10T12:56:26;9.20;36.20
1978;DHT22;989;53.016;8.346;2023-01-10T12:58:55;9.20;28.60
1978;DHT22;989;53.016;8.346;2023-01-10T13:01:31;9.20;27.80
1978;DHT22;989;53.016;8.346;2023-01-10T13:04:11;9.10;32.60
1978;DHT22;989;53.016;8.346;2023-01-10T13:06:41;9.10;30.40
1978;DHT22;989;53.016;8.346;2023-01-10T13:09:14;9.00;30.50
1978;DHT22;989;53.016;8.346;2023-01-10T13:18:25;9.00;29.70
1978;DHT22;989;53.016;8.346;2023-01-10T13:23:49;8.90;34.30
1978;DHT22;989;53.016;8.346;2023-01-10T13:26:17;9.00;35.30
1978;DHT22;989;53.016;8.346;2023-01-10T13:28:56;8.90;32.70
1978;DHT22;989;53.016;8.346;2023-01-10T13:31:31;8.90;32.70
1978;DHT22;989;53.016;8.346;2023-01-10T13:34:04;8.80;35.90
1978;DHT22;989;53.016;8.346;2023-01-10T13:36:40;8.80;40.00
1978;DHT22;989;53.016;8.346;2023-01-10T13:39:23;8.70;35.10
1978;DHT22;989;53.016;8.346;2023-01-10T14:06:19;8.60;47.60
1978;DHT22;989;53.016;8.346;2023-01-10T14:08:59;8.60;48.30
1978;DHT22;989;53.016;8.346;2023-01-10T14:16:47;8.50;45.80
1978;DHT22;989;53.016;8.346;2023-01-10T14:19:27;8.40;45.70
1978;DHT22;989;53.016;8.346;2023-01-10T14:21:57;8.40;49.10
1978;DHT22;989;53.016;8.346;2023-01-10T14:24:27;8.40;50.10
1978;DHT22;989;53.016;8.346;2023-01-10T14:26:58;8.40;50.10
1978;DHT22;989;53.016;8.346;2023-01-10T14:29:31;8.40;52.70
1978;DHT22;989;53.016;8.346;2023-01-10T14:31:59;8.30;53.80
1978;DHT22;989;53.016;8.346;2023-01-10T14:34:28;8.30;54.60
1978;DHT22;989;53.016;8.346;2023-01-10T14:37:02;8.30;56.10
1978;DHT22;989;53.016;8.346;2023-01-10T14:39:31;8.30;54.60
1978;DHT22;989;53.016;8.346;2023-01-10T14:42:00;8.30;52.60
1978;DHT22;989;53.016;8.346;2023-01-10T14:44:36;8.30;51.00
1978;DHT22;989;53.016;8.346;2023-01-10T14:47:28;8.30;51.20
1978;DHT22;989;53.016;8.346;2023-01-10T14:49:55;8.30;52.10
1978;DHT22;989;53.016;8.346;2023-01-10T14:52:41;8.20;51.30
1978;DHT22;989;53.016;8.346;2023-01-10T14:55:15;8.20;53.00
1978;DHT22;989;53.016;8.346;2023-01-10T14:57:52;8.10;57.40
1978;DHT22;989;53.016;8.346;2023-01-10T15:00:24;8.10;54.50
1978;DHT22;989;53.016;8.346;2023-01-10T15:02:55;8.10;53.50
1978;DHT22;989;53.016;8.346;2023-01-10T15:05:28;8.10;53.70
1978;DHT22;989;53.016;8.346;2023-01-10T15:10:45;8.10;53.70
1978;DHT22;989;53.016;8.346;2023-01-10T15:13:14;8.10;54.20
1978;DHT22;989;53.016;8.346;2023-01-10T15:15:42;8.00;56.00
1978;DHT22;989;53.016;8.346;2023-01-10T15:18:40;8.00;53.20
1978;DHT22;989;53.016;8.346;2023-01-10T15:21:13;8.10;53.30
1978;DHT22;989;53.016;8.346;2023-01-10T15:23:44;8.00;54.00
1978;DHT22;989;53.016;8.346;2023-01-10T15:26:18;8.00;53.90
1978;DHT22;989;53.016;8.346;2023-01-10T15:29:22;8.00;53.80
1978;DHT22;989;53.016;8.346;2023-01-10T15:31:49;8.00;54.00
1978;DHT22;989;53.016;8.346;2023-01-10T15:34:20;8.00;54.10
1978;DHT22;989;53.016;8.346;2023-01-10T15:36:56;8.00;50.90
1978;DHT22;989;53.016;8.346;2023-01-10T15:39:29;8.00;52.30
1978;DHT22;989;53.016;8.346;2023-01-10T15:42:00;7.90;50.90
1978;DHT22;989;53.016;8.346;2023-01-10T15:44:40;7.90;52.00
1978;DHT22;989;53.016;8.346;2023-01-10T15:47:39;8.00;47.10
1978;DHT22;989;53.016;8.346;2023-01-10T15:50:30;8.00;49.00
1978;DHT22;989;53.016;8.346;2023-01-10T15:53:03;7.90;49.00
1978;DHT22;989;53.016;8.346;2023-01-10T15:58:16;8.00;46.50
1978;DHT22;989;53.016;8.346;2023-01-10T16:00:50;7.90;44.90
1978;DHT22;989;53.016;8.346;2023-01-10T16:03:32;7.90;44.40
1978;DHT22;989;53.016;8.346;2023-01-10T16:06:00;8.00;43.30
1978;DHT22;989;53.016;8.346;2023-01-10T16:08:31;7.90;42.40
1978;DHT22;989;53.016;8.346;2023-01-10T16:11:05;7.90;42.30
1978;DHT22;989;53.016;8.346;2023-01-10T16:13:32;8.00;40.40
1978;DHT22;989;53.016;8.346;2023-01-10T16:16:01;7.90;41.20
1978;DHT22;989;53.016;8.346;2023-01-10T16:18:30;7.90;42.10
1978;DHT22;989;53.016;8.346;2023-01-10T16:21:00;7.90;41.60
1978;DHT22;989;53.016;8.346;2023-01-10T16:23:31;7.90;43.30
1978;DHT22;989;53.016;8.346;2023-01-10T16:26:02;7.80;46.70
1978;DHT22;989;53.016;8.346;2023-01-10T16:28:31;7.80;45.30
1978;DHT22;989;53.016;8.346;2023-01-10T16:31:01;7.90;46.60
1978;DHT22;989;53.016;8.346;2023-01-10T16:33:27;7.90;41.60
1978;DHT22;989;53.016;8.346;2023-01-10T16:35:58;7.90;41.00
1978;DHT22;989;53.016;8.346;2023-01-10T16:38:26;7.90;39.10
1978;DHT22;989;53.016;8.346;2023-01-10T16:40:59;7.90;40.60
1978;DHT22;989;53.016;8.346;2023-01-10T16:43:47;7.90;40.90
1978;DHT22;989;53.016;8.346;2023-01-10T16:46:13;8.00;38.80
1978;DHT22;989;53.016;8.346;2023-01-10T16:48:39;7.90;37.40
1978;DHT22;989;53.016;8.346;2023-01-10T16:51:21;8.00;34.50
1978;DHT22;989;53.016;8.346;2023-01-10T16:53:51;8.00;30.30
1978;DHT22;989;53.016;8.346;2023-01-10T16:56:19;8.10;29.10
1978;DHT22;989;53.016;8.346;2023-01-10T16:58:50;8.10;28.50
1978;DHT22;989;53.016;8.346;2023-01-10T17:01:24;8.00;26.50
1978;DHT22;989;53.016;8.346;2023-01-10T17:03:53;8.10;27.60
1978;DHT22;989;53.016;8.346;2023-01-10T17:06:20;8.10;28.80
1978;DHT22;989;53.016;8.346;2023-01-10T17:08:47;8.10;29.20
1978;DHT22;989;53.016;8.346;2023-01-10T17:11:20;8.00;32.00
1978;DHT22;989;53.016;8.346;2023-01-10T17:13:49;8.00;35.00
1978;DHT22;989;53.016;8.346;2023-01-10T17:16:15;8.00;41.00
1978;DHT22;989;53.016;8.346;2023-01-10T17:18:43;7.90;48.30
1978;DHT22;989;53.016;8.346;2023-01-10T17:21:15;7.90;54.00
1978;DHT22;989;53.016;8.346;2023-01-10T17:23:44;7.80;58.50
1978;DHT22;989;53.016;8.346;2023-01-10T17:26:12;7.80;61.20
1978;DHT22;989;53.016;8.346;2023-01-10T17:28:40;7.80;68.70
1978;DHT22;989;53.016;8.346;2023-01-10T17:31:06;7.80;76.20
1978;DHT22;989;53.016;8.346;2023-01-10T17:33:32;7.70;86.30
1978;DHT22;989;53.016;8.346;2023-01-10T17:35:59;7.70;91.40
1978;DHT22;989;53.016;8.346;2023-01-10T17:38:26;7.70;94.10
1978;DHT22;989;53.016;8.346;2023-01-10T17:40:53;7.60;98.50
1978;DHT22;989;53.016;8.346;2023-01-10T17:43:21;7.60;99.90
1978;DHT22;989;53.016;8.346;2023-01-10T17:45:49;7.60;99.90
1978;DHT22;989;53.016;8.346;2023-01-10T17:48:16;7.60;99.90
1978;DHT22;989;53.016;8.346;2023-01-10T17:50:46;7.60;99.90
1978;DHT22;989;53.016;8.346;2023-01-10T17:53:14;7.60;99.90
1978;DHT22;989;53.016;8.346;2023-01-10T17:55:45;7.60;99.90
1978;DHT22;989;53.016;8.346;2023-01-10T17:58:12;7.50;99.90
1978;DHT22;989;53.016;8.346;2023-01-10T18:00:38;7.50;99.90
1978;DHT22;989;53.016;8.346;2023-01-10T18:03:04;7.50;99.90
1978;DHT22;989;53.016;8.346;2023-01-10T18:05:30;7.50;99.90
1978;DHT22;989;53.016;8.346;2023-01-10T18:07:58;7.50;99.90
1978;DHT22;989;53.016;8.346;2023-01-10T18:10:25;7.50;99.90
1978;DHT22;989;53.016;8.346;2023-01-10T18:12:51;7.40;99.90
1978;DHT22;989;53.016;8.346;2023-01-10T18:15:16;7.50;99.90
1978;DHT22;989;53.016;8.346;2023-01-10T18:17:42;7.40;99.90
1978;DHT22;989;53.016;8.346;2023-01-10T18:20:10;7.40;99.90
1978;DHT22;989;53.016;8.346;2023-01-10T18:22:37;7.40;99.90
1978;DHT22;989;53.016;8.346;2023-01-10T18:25:23;7.40;99.90
1978;DHT22;989;53.016;8.346;2023-01-10T18:27:50;7.40;99.90
1978;DHT22;989;53.016;8.346;2023-01-10T18:30:21;7.40;99.90
1978;DHT22;989;53.016;8.346;2023-01-10T18:32:48;7.40;99.90
1978;DHT22;989;53.016;8.346;2023-01-10T18:35:14;7.40;99.90
1978;DHT22;989;53.016;8.346;2023-01-10T18:37:40;7.30;99.90
1978;DHT22;989;53.016;8.346;2023-01-10T18:40:07;7.40;99.90
1978;DHT22;989;53.016;8.346;2023-01-10T18:42:33;7.40;99.90
1978;DHT22;989;53.016;8.346;2023-01-10T18:44:59;7.40;99.90
1978;DHT22;989;53.016;8.346;2023-01-10T18:47:24;7.40;99.90
1978;DHT22;989;53.016;8.346;2023-01-10T18:49:50;7.30;99.90
1978;DHT22;989;53.016;8.346;2023-01-10T18:52:16;7.30;99.90
1978;DHT22;989;53.016;8.346;2023-01-10T18:54:42;7.30;99.90
1978;DHT22;989;53.016;8.346;2023-01-10T18:57:08;7.40;99.90